Time;durP1;ratioP1;P1;durP2;ratioP2;P2;SDS_P1;SDS_P2;PMS_P1;PMS_P2;Temp;Humidity;BMP_temperature;BMP_pressure;BME280_temperature;BME280_humidity;BME280_pressure;Samples;Min_cycle;Max_cycle;Signal;HPM_P1;HPM_P2
2021/08/09 00:00:28;;;;;;;18.63;12.02;;;;;;;;;;5096010;28;20028;-72
2021/08/09 00:02:54;;;;;;;16.92;11.40;;;;;;;;;;5094227;28;20033;-72
2021/08/09 00:05:20;;;;;;;18.17;10.95;;;;;;;;;;5095687;28;20039;-67
2021/08/09 00:07:46;;;;;;;17.35;10.45;;;;;;;;;;5095512;28;20013;-72
2021/08/09 00:10:12;;;;;;;17.20;10.15;;;;;;;;;;5094446;28;20030;-67
2021/08/09 00:12:38;;;;;;;14.30;8.52;;;;;;;;;;5103678;28;20028;-68
2021/08/09 00:15:05;;;;;;;15.02;8.98;;;;;;;;;;5091663;28;20056;-71
2021/08/09 00:17:31;;;;;;;12.95;8.52;;;;;;;;;;5094305;28;20058;-66
2021/08/09 00:19:59;;;;;;;13.27;8.07;;;;;;;;;;5091127;28;20047;-72
2021/08/09 00:22:25;;;;;;;13.52;8.52;;;;;;;;;;5097678;28;20008;-72
2021/08/09 00:24:51;;;;;;;13.40;7.63;;;;;;;;;;5093716;28;20048;-70
2021/08/09 00:27:17;;;;;;;12.48;7.18;;;;;;;;;;5094205;28;20012;-68
2021/08/09 00:29:43;;;;;;;12.38;7.47;;;;;;;;;;5094306;28;20350;-69
2021/08/09 00:32:10;;;;;;;13.52;7.18;;;;;;;;;;5093997;28;20418;-72
2021/08/09 00:34:36;;;;;;;13.40;7.60;;;;;;;;;;5094184;28;20020;-66
2021/08/09 00:37:03;;;;;;;13.05;7.30;;;;;;;;;;5096314;28;20104;-73
2021/08/09 00:39:34;;;;;;;15.63;7.43;;;;;;;;;;5096450;28;20028;-71
2021/08/09 00:42:03;;;;;;;20.05;7.45;;;;;;;;;;5104586;28;20031;-65
2021/08/09 00:44:29;;;;;;;9.90;6.40;;;;;;;;;;5091134;28;20017;-73
2021/08/09 00:46:55;;;;;;;11.50;6.85;;;;;;;;;;5092349;28;20048;-67
2021/08/09 00:49:21;;;;;;;11.88;6.80;;;;;;;;;;5094525;28;20024;-72
2021/08/09 00:51:47;;;;;;;14.40;7.20;;;;;;;;;;5092541;28;20491;-67
2021/08/09 00:54:13;;;;;;;11.27;7.03;;;;;;;;;;5094571;28;20078;-68
2021/08/09 00:56:40;;;;;;;10.57;7.50;;;;;;;;;;5093904;28;20366;-65
2021/08/09 00:59:07;;;;;;;12.20;7.40;;;;;;;;;;5096771;28;20035;-72
2021/08/09 01:01:33;;;;;;;12.35;8.38;;;;;;;;;;5099929;28;20020;-72
2021/08/09 01:04:00;;;;;;;13.38;7.90;;;;;;;;;;5093432;28;20063;-72
2021/08/09 01:06:26;;;;;;;13.48;7.78;;;;;;;;;;5092165;28;20013;-70
2021/08/09 01:08:52;;;;;;;11.98;7.65;;;;;;;;;;5095143;28;20056;-67
2021/08/09 01:11:18;;;;;;;13.40;8.02;;;;;;;;;;5097002;28;20055;-69
2021/08/09 01:13:50;;;;;;;17.95;8.90;;;;;;;;;;5090552;28;20441;-67
2021/08/09 01:16:16;;;;;;;13.27;8.02;;;;;;;;;;5092015;28;20027;-72
2021/08/09 01:18:42;;;;;;;15.07;8.65;;;;;;;;;;5099463;28;20040;-66
2021/08/09 01:21:11;;;;;;;15.30;8.82;;;;;;;;;;5092755;28;20035;-66
2021/08/09 01:23:55;;;;;;;14.55;8.70;;;;;;;;;;5096087;28;20489;-70
2021/08/09 01:26:39;;;;;;;15.88;8.52;;;;;;;;;;5084103;28;20056;-70
2021/08/09 01:29:10;;;;;;;14.18;8.38;;;;;;;;;;5096014;28;20024;-71
2021/08/09 01:31:46;;;;;;;16.55;8.73;;;;;;;;;;5089726;28;20024;-66
2021/08/09 01:34:15;;;;;;;14.70;7.90;;;;;;;;;;5100946;28;20061;-70
2021/08/09 01:36:44;;;;;;;15.38;8.60;;;;;;;;;;5093437;28;20029;-67
2021/08/09 01:39:11;;;;;;;12.02;8.13;;;;;;;;;;5087311;28;20040;-72
2021/08/09 01:41:38;;;;;;;13.88;8.20;;;;;;;;;;5095913;28;20513;-66
2021/08/09 01:44:05;;;;;;;11.77;7.88;;;;;;;;;;5084803;28;20036;-66
2021/08/09 01:46:32;;;;;;;14.55;8.25;;;;;;;;;;5089486;28;20031;-66
2021/08/09 01:48:59;;;;;;;13.40;8.32;;;;;;;;;;5093067;28;20031;-72
2021/08/09 01:51:27;;;;;;;11.65;8.07;;;;;;;;;;5093903;28;20028;-72
2021/08/09 01:53:53;;;;;;;13.77;8.48;;;;;;;;;;5092284;28;20469;-72
2021/08/09 01:56:20;;;;;;;12.18;7.88;;;;;;;;;;5096518;28;20107;-66
2021/08/09 01:58:46;;;;;;;14.00;7.80;;;;;;;;;;5092586;28;20044;-71
2021/08/09 02:01:16;;;;;;;13.30;7.28;;;;;;;;;;5099684;28;20031;-73
2021/08/09 02:03:42;;;;;;;12.38;7.53;;;;;;;;;;5095383;27;20036;-72
2021/08/09 02:06:08;;;;;;;13.52;7.22;;;;;;;;;;5088683;28;20059;-66
2021/08/09 02:08:35;;;;;;;13.35;7.43;;;;;;;;;;5092550;28;20047;-71
2021/08/09 02:11:04;;;;;;;12.55;7.40;;;;;;;;;;5093741;28;20028;-72
2021/08/09 02:13:35;;;;;;;11.88;6.90;;;;;;;;;;5092150;28;20103;-65
2021/08/09 02:16:04;;;;;;;12.93;7.30;;;;;;;;;;5093778;28;20024;-69
2021/08/09 02:18:32;;;;;;;12.88;7.38;;;;;;;;;;5092064;28;20074;-73
2021/08/09 02:21:02;;;;;;;12.55;6.65;;;;;;;;;;5098459;28;20032;-66
2021/08/09 02:23:44;;;;;;;11.38;7.43;;;;;;;;;;5098418;28;20081;-73
2021/08/09 02:26:10;;;;;;;13.65;7.38;;;;;;;;;;5087979;28;20468;-71
2021/08/09 02:28:39;;;;;;;11.10;7.03;;;;;;;;;;5092977;28;20054;-69
2021/08/09 02:31:07;;;;;;;10.13;7.38;;;;;;;;;;5095801;28;20035;-73
2021/08/09 02:33:34;;;;;;;12.55;7.53;;;;;;;;;;5093912;28;20036;-66
2021/08/09 02:36:02;;;;;;;11.50;7.65;;;;;;;;;;5093366;28;20105;-72
2021/08/09 02:38:28;;;;;;;11.40;7.22;;;;;;;;;;5091781;28;20032;-66
2021/08/09 02:40:54;;;;;;;13.10;7.55;;;;;;;;;;5092613;28;20504;-66
2021/08/09 02:43:21;;;;;;;11.30;7.40;;;;;;;;;;5091801;28;20050;-70
2021/08/09 02:45:49;;;;;;;11.90;7.32;;;;;;;;;;5084489;28;20030;-72
2021/08/09 02:48:17;;;;;;;14.50;8.35;;;;;;;;;;5089663;28;20493;-66
2021/08/09 02:50:45;;;;;;;13.80;7.45;;;;;;;;;;5092051;28;20500;-66
2021/08/09 02:53:11;;;;;;;12.57;7.97;;;;;;;;;;5091503;28;20089;-68
2021/08/09 02:55:49;;;;;;;11.00;8.30;;;;;;;;;;5094271;28;20054;-73
2021/08/09 02:58:16;;;;;;;13.95;8.80;;;;;;;;;;5089325;28;20020;-72
2021/08/09 03:00:42;;;;;;;14.40;8.05;;;;;;;;;;5092987;28;20755;-67
2021/08/09 03:03:08;;;;;;;16.33;9.10;;;;;;;;;;5097898;28;20119;-66
2021/08/09 03:05:35;;;;;;;12.02;8.35;;;;;;;;;;5091479;28;20481;-69
2021/08/09 03:08:01;;;;;;;13.15;8.45;;;;;;;;;;5091594;28;20424;-71
2021/08/09 03:10:28;;;;;;;12.80;8.32;;;;;;;;;;5106923;28;20081;-68
2021/08/09 03:12:58;;;;;;;11.88;8.02;;;;;;;;;;5094207;28;20157;-67
2021/08/09 03:15:25;;;;;;;13.55;8.38;;;;;;;;;;5091271;28;20020;-72
2021/08/09 03:17:51;;;;;;;13.98;8.18;;;;;;;;;;5098519;28;20043;-72
2021/08/09 03:20:17;;;;;;;14.70;8.60;;;;;;;;;;5094448;28;20393;-66
2021/08/09 03:22:43;;;;;;;16.50;8.25;;;;;;;;;;5091591;28;20024;-68
2021/08/09 03:25:11;;;;;;;8.85;7.65;;;;;;;;;;5098589;28;20058;-72
2021/08/09 03:27:42;;;;;;;13.65;8.13;;;;;;;;;;5098253;28;20111;-66
2021/08/09 03:30:09;;;;;;;11.65;7.63;;;;;;;;;;5095741;28;20031;-69
2021/08/09 03:32:35;;;;;;;10.63;7.50;;;;;;;;;;5099489;28;20020;-72
2021/08/09 03:35:01;;;;;;;12.63;8.00;;;;;;;;;;5103183;28;20481;-69
2021/08/09 03:37:27;;;;;;;14.68;7.80;;;;;;;;;;5094962;28;20423;-66
2021/08/09 03:39:53;;;;;;;10.77;7.43;;;;;;;;;;5089351;28;20112;-71
2021/08/09 03:42:20;;;;;;;11.60;7.65;;;;;;;;;;5093297;28;20028;-66
2021/08/09 03:44:46;;;;;;;13.00;7.47;;;;;;;;;;5090351;28;20052;-70
2021/08/09 03:47:12;;;;;;;10.82;7.40;;;;;;;;;;5090539;28;20105;-66
2021/08/09 03:49:38;;;;;;;15.05;8.05;;;;;;;;;;5098780;28;20081;-67
2021/08/09 03:52:04;;;;;;;14.90;8.05;;;;;;;;;;5089714;28;20028;-69
2021/08/09 03:54:31;;;;;;;12.15;7.38;;;;;;;;;;5091324;28;20032;-71
2021/08/09 03:56:57;;;;;;;15.07;7.50;;;;;;;;;;5097944;28;20032;-73
2021/08/09 03:59:23;;;;;;;10.82;7.35;;;;;;;;;;5095444;28;20390;-66
2021/08/09 04:01:49;;;;;;;12.60;7.82;;;;;;;;;;5095735;28;20386;-66
2021/08/09 04:04:16;;;;;;;12.48;7.10;;;;;;;;;;5095176;28;20564;-71
2021/08/09 04:06:42;;;;;;;11.63;7.07;;;;;;;;;;5094190;28;20035;-71
2021/08/09 04:09:08;;;;;;;14.52;7.57;;;;;;;;;;5096528;28;20031;-73
2021/08/09 04:11:34;;;;;;;13.65;7.65;;;;;;;;;;5099076;28;20095;-65
2021/08/09 04:14:01;;;;;;;16.48;7.38;;;;;;;;;;5096545;28;20072;-66
2021/08/09 04:16:28;;;;;;;11.38;7.28;;;;;;;;;;5095786;28;20055;-73
2021/08/09 04:18:54;;;;;;;12.30;7.07;;;;;;;;;;5108658;28;20032;-73
2021/08/09 04:21:20;;;;;;;11.93;7.07;;;;;;;;;;5095526;28;20016;-70
2021/08/09 04:23:48;;;;;;;12.63;7.80;;;;;;;;;;5091732;28;20024;-72
2021/08/09 04:26:15;;;;;;;14.77;8.93;;;;;;;;;;5094896;28;20013;-73
2021/08/09 04:28:41;;;;;;;11.00;7.25;;;;;;;;;;5099895;28;20024;-67
2021/08/09 04:31:07;;;;;;;12.93;6.55;;;;;;;;;;5090065;28;20031;-70
2021/08/09 04:33:40;;;;;;;13.23;7.00;;;;;;;;;;5090369;28;20016;-71
2021/08/09 04:36:06;;;;;;;11.52;6.53;;;;;;;;;;5090818;28;20541;-78
2021/08/09 04:38:32;;;;;;;8.45;6.30;;;;;;;;;;5087347;28;20067;-79
2021/08/09 04:40:58;;;;;;;11.10;6.50;;;;;;;;;;5091812;28;20381;-78
2021/08/09 04:43:24;;;;;;;11.70;5.93;;;;;;;;;;5088075;28;20020;-69
2021/08/09 04:45:51;;;;;;;8.27;6.20;;;;;;;;;;5086287;28;20073;-70
2021/08/09 04:48:17;;;;;;;9.55;6.00;;;;;;;;;;5087354;28;20101;-69
2021/08/09 04:50:43;;;;;;;10.48;6.05;;;;;;;;;;5088309;28;20031;-64
2021/08/09 04:53:10;;;;;;;10.07;6.32;;;;;;;;;;5088418;28;20031;-68
2021/08/09 04:55:36;;;;;;;8.30;5.95;;;;;;;;;;5082693;28;20032;-68
2021/08/09 04:58:02;;;;;;;10.88;6.00;;;;;;;;;;5088260;28;20121;-65
2021/08/09 05:00:28;;;;;;;11.02;6.22;;;;;;;;;;5085710;28;20028;-64
2021/08/09 05:02:54;;;;;;;14.25;5.70;;;;;;;;;;5087027;28;20021;-73
2021/08/09 05:05:20;;;;;;;10.45;6.13;;;;;;;;;;5085910;28;20038;-65
2021/08/09 05:07:46;;;;;;;9.00;6.05;;;;;;;;;;5085898;28;20032;-75
2021/08/09 05:10:13;;;;;;;11.00;5.93;;;;;;;;;;5088850;28;20533;-75
2021/08/09 05:12:42;;;;;;;9.55;5.95;;;;;;;;;;5082511;28;20028;-73
2021/08/09 05:15:12;;;;;;;9.05;5.93;;;;;;;;;;5118770;27;20028;-76
2021/08/09 05:17:38;;;;;;;9.65;5.57;;;;;;;;;;5083197;28;20086;-85
2021/08/09 05:20:06;;;;;;;12.35;5.70;;;;;;;;;;5088420;28;20060;-86
2021/08/09 05:22:32;;;;;;;8.55;5.50;;;;;;;;;;5087277;28;20036;-66
2021/08/09 05:25:03;;;;;;;9.32;5.18;;;;;;;;;;5087192;28;20769;-68
2021/08/09 05:27:29;;;;;;;8.60;5.05;;;;;;;;;;5082855;28;20024;-71
2021/08/09 05:29:55;;;;;;;9.27;5.03;;;;;;;;;;5089841;28;20020;-70
2021/08/09 05:32:21;;;;;;;9.77;5.35;;;;;;;;;;5088209;28;20028;-70
2021/08/09 05:34:47;;;;;;;7.88;4.93;;;;;;;;;;5087792;28;20050;-71
2021/08/09 05:37:14;;;;;;;8.65;4.53;;;;;;;;;;5088410;28;20106;-73
2021/08/09 05:39:41;;;;;;;11.05;4.72;;;;;;;;;;5091606;28;20054;-71
2021/08/09 05:42:07;;;;;;;9.05;4.78;;;;;;;;;;5083171;28;20047;-73
2021/08/09 05:44:33;;;;;;;10.25;4.55;;;;;;;;;;5087390;28;20020;-72
2021/08/09 05:46:59;;;;;;;10.50;4.72;;;;;;;;;;5077618;28;20435;-73
2021/08/09 05:49:26;;;;;;;9.13;3.90;;;;;;;;;;5084967;28;20021;-68
2021/08/09 05:51:52;;;;;;;11.60;5.35;;;;;;;;;;5089217;28;20469;-71
2021/08/09 05:54:21;;;;;;;8.98;4.28;;;;;;;;;;5083497;28;20037;-81
2021/08/09 05:56:47;;;;;;;6.93;4.30;;;;;;;;;;5089141;28;20035;-73
2021/08/09 05:59:46;;;;;;;6.75;4.45;;;;;;;;;;5084081;28;20060;-79
2021/08/09 06:02:12;;;;;;;9.07;4.55;;;;;;;;;;5084317;28;20035;-68
2021/08/09 06:04:41;;;;;;;9.73;4.70;;;;;;;;;;5099492;28;20024;-73
2021/08/09 06:07:11;;;;;;;8.40;4.28;;;;;;;;;;5064809;28;20477;-72
2021/08/09 06:09:47;;;;;;;9.27;4.57;;;;;;;;;;5083266;28;20477;-84
2021/08/09 06:12:14;;;;;;;10.80;4.68;;;;;;;;;;5091206;28;20101;-80
2021/08/09 06:14:40;;;;;;;9.20;4.57;;;;;;;;;;5088759;28;20020;-69
2021/08/09 06:17:07;;;;;;;9.07;4.22;;;;;;;;;;5078960;28;20036;-68
2021/08/09 06:19:36;;;;;;;10.63;5.00;;;;;;;;;;5079627;28;20040;-66
2021/08/09 06:22:03;;;;;;;8.43;4.45;;;;;;;;;;5083031;28;20025;-71
2021/08/09 06:24:29;;;;;;;7.03;4.18;;;;;;;;;;5084300;28;20497;-72
2021/08/09 06:26:55;;;;;;;8.25;4.43;;;;;;;;;;5070401;28;20028;-69
2021/08/09 06:29:21;;;;;;;8.48;4.60;;;;;;;;;;5085984;28;20039;-73
2021/08/09 06:31:58;;;;;;;8.00;4.50;;;;;;;;;;5070819;28;20479;-71
2021/08/09 06:34:25;;;;;;;9.65;4.40;;;;;;;;;;5075939;28;20036;-73
2021/08/09 06:36:51;;;;;;;7.90;4.40;;;;;;;;;;5079050;28;20119;-74
2021/08/09 06:39:20;;;;;;;6.63;4.30;;;;;;;;;;5087516;28;20039;-71
2021/08/09 06:41:50;;;;;;;8.32;4.70;;;;;;;;;;5090072;28;20028;-67
2021/08/09 06:44:16;;;;;;;8.32;4.38;;;;;;;;;;5082855;28;20036;-70
2021/08/09 06:46:42;;;;;;;6.88;4.55;;;;;;;;;;5079821;28;20028;-70
2021/08/09 06:49:08;;;;;;;7.75;4.53;;;;;;;;;;5084359;28;20390;-70
2021/08/09 06:51:35;;;;;;;9.32;4.53;;;;;;;;;;5084148;28;20051;-74
2021/08/09 06:54:01;;;;;;;7.38;4.22;;;;;;;;;;5083424;28;20137;-71
2021/08/09 06:56:27;;;;;;;11.00;4.63;;;;;;;;;;5081163;28;20022;-70
2021/08/09 06:58:53;;;;;;;8.85;4.80;;;;;;;;;;5087627;28;20044;-71
2021/08/09 07:01:22;;;;;;;10.52;4.50;;;;;;;;;;5090170;28;20107;-70
2021/08/09 07:03:48;;;;;;;8.35;4.65;;;;;;;;;;5079757;28;20027;-73
2021/08/09 07:06:18;;;;;;;8.38;4.47;;;;;;;;;;5090376;28;20035;-67
2021/08/09 07:08:44;;;;;;;8.57;4.72;;;;;;;;;;5081406;28;20381;-67
2021/08/09 07:11:10;;;;;;;10.75;4.97;;;;;;;;;;5084678;28;20054;-68
2021/08/09 07:13:36;;;;;;;7.40;4.65;;;;;;;;;;5086382;28;20081;-68
2021/08/09 07:16:02;;;;;;;10.73;5.57;;;;;;;;;;5088432;28;20139;-68
2021/08/09 07:18:28;;;;;;;9.25;4.78;;;;;;;;;;5088035;28;20434;-69
2021/08/09 07:20:54;;;;;;;7.95;4.50;;;;;;;;;;5084657;28;20036;-70
2021/08/09 07:23:20;;;;;;;10.95;4.55;;;;;;;;;;5084390;28;20074;-70
2021/08/09 07:25:47;;;;;;;7.00;4.70;;;;;;;;;;5083197;28;20028;-68
2021/08/09 07:28:13;;;;;;;7.22;4.95;;;;;;;;;;5080442;28;20090;-69
2021/08/09 07:30:39;;;;;;;9.43;4.70;;;;;;;;;;5082974;28;20028;-68
2021/08/09 07:33:05;;;;;;;10.20;4.53;;;;;;;;;;5088172;28;20145;-69
2021/08/09 07:35:31;;;;;;;9.32;4.35;;;;;;;;;;5087352;28;20084;-70
2021/08/09 07:37:57;;;;;;;9.23;4.10;;;;;;;;;;5092609;28;20054;-68
2021/08/09 07:40:23;;;;;;;9.77;4.95;;;;;;;;;;5086884;28;20047;-67
2021/08/09 07:42:49;;;;;;;7.90;4.47;;;;;;;;;;5089775;28;20024;-68
2021/08/09 07:45:15;;;;;;;8.43;4.60;;;;;;;;;;5086107;28;20029;-69
2021/08/09 07:47:41;;;;;;;11.45;4.70;;;;;;;;;;5083496;28;20052;-68
2021/08/09 07:50:08;;;;;;;7.93;4.75;;;;;;;;;;5093810;28;20523;-70
2021/08/09 07:52:34;;;;;;;12.40;4.90;;;;;;;;;;5090124;28;20069;-70
2021/08/09 07:55:01;;;;;;;8.63;4.57;;;;;;;;;;5089374;28;20603;-70
2021/08/09 07:57:28;;;;;;;10.98;4.90;;;;;;;;;;5088864;28;20034;-70
2021/08/09 07:59:54;;;;;;;8.10;4.72;;;;;;;;;;5090124;28;20043;-69
2021/08/09 08:02:20;;;;;;;12.30;4.60;;;;;;;;;;5087099;28;20020;-66
2021/08/09 08:04:49;;;;;;;8.95;4.85;;;;;;;;;;5090149;28;20051;-69
2021/08/09 08:07:15;;;;;;;7.97;4.68;;;;;;;;;;5089101;28;20078;-67
2021/08/09 08:09:41;;;;;;;7.00;4.50;;;;;;;;;;5087803;28;20020;-71
2021/08/09 08:12:07;;;;;;;8.73;4.57;;;;;;;;;;5088839;28;20540;-71
2021/08/09 08:14:33;;;;;;;9.82;4.60;;;;;;;;;;5084348;28;20036;-71
2021/08/09 08:16:59;;;;;;;9.18;4.38;;;;;;;;;;5083718;28;20030;-76
2021/08/09 08:19:26;;;;;;;6.88;4.50;;;;;;;;;;5088301;28;20038;-69
2021/08/09 08:21:52;;;;;;;9.48;4.60;;;;;;;;;;5092433;28;20031;-67
2021/08/09 08:24:18;;;;;;;9.52;4.47;;;;;;;;;;5088618;28;20025;-70
2021/08/09 08:26:44;;;;;;;7.45;4.50;;;;;;;;;;5090347;28;20024;-73
2021/08/09 08:29:10;;;;;;;9.75;4.60;;;;;;;;;;5084172;28;20037;-71
2021/08/09 08:31:36;;;;;;;15.77;5.78;;;;;;;;;;5088856;28;20035;-69
2021/08/09 08:34:02;;;;;;;11.95;5.07;;;;;;;;;;5087626;28;20366;-72
2021/08/09 08:36:28;;;;;;;11.05;5.20;;;;;;;;;;5090088;28;20020;-73
2021/08/09 08:38:56;;;;;;;8.57;4.97;;;;;;;;;;5083247;28;20037;-72
2021/08/09 08:41:22;;;;;;;11.90;5.28;;;;;;;;;;5082952;28;20031;-73
2021/08/09 08:43:48;;;;;;;9.18;5.20;;;;;;;;;;5092810;28;20047;-73
2021/08/09 08:46:14;;;;;;;9.05;5.00;;;;;;;;;;5089977;28;20023;-72
2021/08/09 08:48:42;;;;;;;8.45;5.30;;;;;;;;;;5092491;28;20047;-73
2021/08/09 08:51:08;;;;;;;11.80;5.63;;;;;;;;;;5089505;28;20045;-72
2021/08/09 08:53:36;;;;;;;13.65;6.70;;;;;;;;;;5092591;28;20031;-68
2021/08/09 08:56:06;;;;;;;12.93;7.10;;;;;;;;;;5094066;28;20024;-72
2021/08/09 08:58:34;;;;;;;10.02;5.75;;;;;;;;;;5093460;28;20368;-72
2021/08/09 09:01:00;;;;;;;15.63;6.30;;;;;;;;;;5094026;28;20595;-73
2021/08/09 09:03:28;;;;;;;8.25;5.18;;;;;;;;;;5091158;28;20093;-70
2021/08/09 09:06:04;;;;;;;18.42;11.77;;;;;;;;;;5090106;28;20024;-70
2021/08/09 09:08:41;;;;;;;11.68;4.93;;;;;;;;;;5092421;28;20024;-72
2021/08/09 09:11:08;;;;;;;7.97;5.40;;;;;;;;;;5088846;28;20032;-71
2021/08/09 09:13:34;;;;;;;7.85;5.32;;;;;;;;;;5090866;28;20541;-72
2021/08/09 09:16:08;;;;;;;13.88;5.60;;;;;;;;;;5089903;28;20658;-68
2021/08/09 09:18:33;;;;;;;;;;;;;;;;;;5084384;28;20031;-74
2021/08/09 09:20:59;;;;;;;10.27;5.20;;;;;;;;;;5080695;28;19924;-73
2021/08/09 09:23:26;;;;;;;8.48;4.72;;;;;;;;;;5086301;28;20107;-74
2021/08/09 09:25:53;;;;;;;9.55;4.90;;;;;;;;;;5091113;28;20136;-76
2021/08/09 09:28:23;;;;;;;15.20;6.03;;;;;;;;;;5086734;28;20020;-73
2021/08/09 09:30:49;;;;;;;21.10;14.05;;;;;;;;;;5085132;28;20028;-63
2021/08/09 09:33:15;;;;;;;10.70;5.95;;;;;;;;;;5085573;28;20039;-65
2021/08/09 09:35:41;;;;;;;9.52;5.30;;;;;;;;;;5088232;28;20016;-64
2021/08/09 09:38:07;;;;;;;11.98;6.40;;;;;;;;;;5082736;28;20771;-69
2021/08/09 09:40:43;;;;;;;8.65;5.30;;;;;;;;;;5084278;28;20050;-73
2021/08/09 09:43:19;;;;;;;8.73;4.80;;;;;;;;;;5085662;28;20095;-73
2021/08/09 09:45:53;;;;;;;10.80;5.03;;;;;;;;;;5083243;28;20404;-69
2021/08/09 09:48:32;;;;;;;9.45;5.68;;;;;;;;;;5083961;28;20081;-77
2021/08/09 09:51:08;;;;;;;7.70;4.80;;;;;;;;;;5088290;28;20028;-84
2021/08/09 09:53:34;;;;;;;5.60;4.45;;;;;;;;;;5088514;28;20027;-71
2021/08/09 09:56:00;;;;;;;10.35;5.05;;;;;;;;;;5079220;28;20025;-76
2021/08/09 09:58:27;;;;;;;9.70;5.13;;;;;;;;;;5083525;28;20028;-70
2021/08/09 10:00:55;;;;;;;10.00;5.53;;;;;;;;;;5083771;28;20036;-66
2021/08/09 10:03:21;;;;;;;11.35;5.90;;;;;;;;;;5081424;28;20056;-67
2021/08/09 10:05:48;;;;;;;9.45;4.75;;;;;;;;;;5089039;28;20497;-70
2021/08/09 10:08:18;;;;;;;13.38;5.40;;;;;;;;;;5088830;28;20126;-71
2021/08/09 10:10:48;;;;;;;8.07;5.13;;;;;;;;;;5083021;28;20046;-82
2021/08/09 10:13:24;;;;;;;20.45;10.57;;;;;;;;;;5116321;27;20084;-83
2021/08/09 10:15:56;;;;;;;13.23;6.90;;;;;;;;;;5079782;28;20020;-76
2021/08/09 10:18:43;;;;;;;9.27;6.70;;;;;;;;;;5081773;28;20111;-73
2021/08/09 10:21:09;;;;;;;8.38;5.15;;;;;;;;;;5080339;28;20074;-68
2021/08/09 10:23:42;;;;;;;10.32;5.63;;;;;;;;;;5080965;28;20552;-67
2021/08/09 10:26:31;;;;;;;28.85;13.15;;;;;;;;;;5089806;28;20024;-67
2021/08/09 10:29:01;;;;;;;12.32;6.03;;;;;;;;;;5058935;28;20715;-70
2021/08/09 10:31:31;;;;;;;13.43;6.00;;;;;;;;;;5066401;28;20127;-68
2021/08/09 10:33:57;;;;;;;16.38;9.63;;;;;;;;;;5060423;28;20133;-78
2021/08/09 10:36:24;;;;;;;18.38;9.13;;;;;;;;;;5065739;28;20180;-78
2021/08/09 10:38:53;;;;;;;14.15;5.18;;;;;;;;;;5047058;28;20025;-82
2021/08/09 10:41:27;;;;;;;8.07;4.90;;;;;;;;;;5061821;28;20040;-79
2021/08/09 10:44:05;;;;;;;11.25;6.30;;;;;;;;;;5081746;28;20013;-75
2021/08/09 10:46:39;;;;;;;8.43;5.45;;;;;;;;;;5064946;28;20491;-74
2021/08/09 10:49:28;;;;;;;15.10;10.25;;;;;;;;;;5065200;28;20044;-75
2021/08/09 10:51:54;;;;;;;21.77;14.13;;;;;;;;;;5065050;28;20374;-70
2021/08/09 10:54:27;;;;;;;8.05;5.50;;;;;;;;;;5067472;28;20495;-71
2021/08/09 10:56:53;;;;;;;;;;;;;;;;;;5065993;28;20031;-73
2021/08/09 10:59:40;;;;;;;19.92;10.80;;;;;;;;;;5064572;28;19916;-68
2021/08/09 11:02:23;;;;;;;11.98;6.93;;;;;;;;;;5064675;28;20168;-68
2021/08/09 11:05:07;;;;;;;15.23;6.72;;;;;;;;;;5068707;28;20028;-69
2021/08/09 11:07:33;;;;;;;8.75;5.78;;;;;;;;;;5090359;28;20032;-70
2021/08/09 11:09:59;;;;;;;10.13;5.80;;;;;;;;;;5091512;28;20104;-69
2021/08/09 11:12:35;;;;;;;8.73;5.30;;;;;;;;;;5091630;28;20112;-71
2021/08/09 11:15:08;;;;;;;10.88;5.70;;;;;;;;;;5087304;28;20170;-70
2021/08/09 11:17:38;;;;;;;10.13;5.03;;;;;;;;;;5089640;28;20028;-70
2021/08/09 11:20:10;;;;;;;9.88;5.20;;;;;;;;;;5090439;28;20054;-69
2021/08/09 11:22:39;;;;;;;10.60;4.97;;;;;;;;;;5086728;28;20028;-70
2021/08/09 11:25:24;;;;;;;10.55;4.78;;;;;;;;;;5089444;28;20020;-69
2021/08/09 11:28:00;;;;;;;10.55;4.90;;;;;;;;;;5098932;28;20337;-71
2021/08/09 11:30:32;;;;;;;8.57;4.75;;;;;;;;;;5091878;28;20024;-69
2021/08/09 11:32:58;;;;;;;9.07;5.30;;;;;;;;;;5089829;28;20024;-68
2021/08/09 11:35:24;;;;;;;6.38;4.68;;;;;;;;;;5087150;28;20269;-68
2021/08/09 11:37:54;;;;;;;8.30;4.75;;;;;;;;;;5088752;28;20048;-67
2021/08/09 11:40:35;;;;;;;9.80;4.75;;;;;;;;;;5090979;28;20093;-71
2021/08/09 11:43:05;;;;;;;11.52;4.97;;;;;;;;;;5092188;28;20028;-71
2021/08/09 11:45:34;;;;;;;11.20;5.18;;;;;;;;;;5109650;28;20021;-67
2021/08/09 11:48:01;;;;;;;10.60;5.10;;;;;;;;;;5088877;28;20493;-71
2021/08/09 11:50:33;;;;;;;7.75;4.95;;;;;;;;;;5089555;28;20114;-69
2021/08/09 11:52:59;;;;;;;9.57;4.85;;;;;;;;;;5091453;28;20032;-71
2021/08/09 11:55:25;;;;;;;6.68;4.40;;;;;;;;;;5090265;28;20389;-71
2021/08/09 11:57:51;;;;;;;8.65;4.70;;;;;;;;;;5087488;28;20024;-68
2021/08/09 12:00:17;;;;;;;11.73;5.38;;;;;;;;;;5091159;28;20370;-67
2021/08/09 12:03:02;;;;;;;7.47;4.65;;;;;;;;;;5094266;28;20510;-71
2021/08/09 12:05:28;;;;;;;10.05;4.85;;;;;;;;;;5092944;28;20488;-71
2021/08/09 12:07:58;;;;;;;7.72;4.88;;;;;;;;;;5090427;28;20020;-72
2021/08/09 12:10:28;;;;;;;11.73;5.18;;;;;;;;;;5092109;28;20039;-68
2021/08/09 12:12:54;;;;;;;8.85;5.28;;;;;;;;;;5091865;28;20179;-70
2021/08/09 12:15:23;;;;;;;11.15;4.85;;;;;;;;;;5090727;28;20028;-68
2021/08/09 12:18:06;;;;;;;10.27;4.90;;;;;;;;;;5087704;28;20108;-68
2021/08/09 12:20:32;;;;;;;7.57;4.40;;;;;;;;;;5093197;28;20032;-71
2021/08/09 12:23:02;;;;;;;8.45;4.65;;;;;;;;;;5096908;28;20058;-72
2021/08/09 12:25:37;;;;;;;6.55;4.38;;;;;;;;;;5092812;28;20051;-71
2021/08/09 12:28:08;;;;;;;8.13;4.30;;;;;;;;;;5094060;28;20020;-71
2021/08/09 12:30:51;;;;;;;9.40;4.38;;;;;;;;;;5090315;28;20021;-71
2021/08/09 12:33:17;;;;;;;10.27;4.72;;;;;;;;;;5088503;28;20031;-72
2021/08/09 12:35:43;;;;;;;10.15;4.68;;;;;;;;;;5092993;28;20024;-71
2021/08/09 12:38:11;;;;;;;8.10;4.63;;;;;;;;;;5092554;28;20042;-70
2021/08/09 12:40:38;;;;;;;10.48;4.22;;;;;;;;;;5089742;28;20040;-69
2021/08/09 12:43:06;;;;;;;7.97;4.18;;;;;;;;;;5092894;28;20024;-68
2021/08/09 12:45:32;;;;;;;10.45;4.43;;;;;;;;;;5085652;28;20031;-70
2021/08/09 12:47:58;;;;;;;8.65;4.63;;;;;;;;;;5086170;28;20057;-70
2021/08/09 12:50:32;;;;;;;7.07;4.57;;;;;;;;;;5093952;28;20028;-72
2021/08/09 12:52:58;;;;;;;6.88;4.07;;;;;;;;;;5088621;28;20036;-71
2021/08/09 12:55:25;;;;;;;7.93;4.20;;;;;;;;;;5095312;28;20178;-70
2021/08/09 12:57:52;;;;;;;6.40;4.30;;;;;;;;;;5094314;28;20020;-71
2021/08/09 13:00:19;;;;;;;6.43;4.25;;;;;;;;;;5086698;28;20039;-69
2021/08/09 13:02:45;;;;;;;7.75;4.00;;;;;;;;;;5091969;28;20024;-70
2021/08/09 13:05:11;;;;;;;7.13;4.13;;;;;;;;;;5085364;28;20052;-70
2021/08/09 13:07:37;;;;;;;7.05;4.30;;;;;;;;;;5093359;28;20108;-69
2021/08/09 13:10:04;;;;;;;7.78;4.40;;;;;;;;;;5092630;28;20035;-71
2021/08/09 13:12:30;;;;;;;11.15;3.95;;;;;;;;;;5091395;28;20099;-71
2021/08/09 13:14:56;;;;;;;5.97;4.10;;;;;;;;;;5086485;28;20584;-70
2021/08/09 13:17:26;;;;;;;10.68;4.60;;;;;;;;;;5092029;28;20024;-71
2021/08/09 13:20:08;;;;;;;8.55;3.90;;;;;;;;;;5094400;28;20032;-70
2021/08/09 13:22:34;;;;;;;9.65;4.05;;;;;;;;;;5089985;28;20028;-70
2021/08/09 13:25:03;;;;;;;13.05;4.10;;;;;;;;;;5092747;28;20389;-70
2021/08/09 13:27:29;;;;;;;8.85;4.00;;;;;;;;;;5087531;28;20022;-71
2021/08/09 13:29:57;;;;;;;9.88;4.18;;;;;;;;;;5089891;28;20031;-71
2021/08/09 13:32:23;;;;;;;9.13;4.40;;;;;;;;;;5089442;28;20355;-71
2021/08/09 13:34:49;;;;;;;8.98;4.50;;;;;;;;;;5085178;28;20028;-67
2021/08/09 13:37:16;;;;;;;9.25;4.40;;;;;;;;;;5090784;28;20016;-69
2021/08/09 13:39:42;;;;;;;8.45;3.70;;;;;;;;;;5090198;28;20136;-71
2021/08/09 13:42:08;;;;;;;8.07;3.72;;;;;;;;;;5091750;28;20119;-70
2021/08/09 13:44:34;;;;;;;7.53;4.43;;;;;;;;;;5090605;28;20473;-71
2021/08/09 13:47:01;;;;;;;14.07;4.35;;;;;;;;;;5080563;28;20044;-68
2021/08/09 13:49:27;;;;;;;9.65;4.53;;;;;;;;;;5091877;28;20448;-70
2021/08/09 13:51:53;;;;;;;8.68;4.30;;;;;;;;;;5090099;28;20062;-72
2021/08/09 13:54:19;;;;;;;8.93;4.10;;;;;;;;;;5096260;28;20036;-70
2021/08/09 13:56:45;;;;;;;6.43;3.85;;;;;;;;;;5085676;28;20485;-69
2021/08/09 13:59:11;;;;;;;7.82;4.18;;;;;;;;;;5089569;28;20534;-70
2021/08/09 14:01:37;;;;;;;9.80;4.68;;;;;;;;;;5091775;28;20507;-67
2021/08/09 14:04:06;;;;;;;7.47;4.43;;;;;;;;;;5087927;28;20043;-69
2021/08/09 14:06:32;;;;;;;11.35;4.35;;;;;;;;;;5086171;28;20164;-68
2021/08/09 14:08:58;;;;;;;7.90;4.00;;;;;;;;;;5092521;28;20028;-67
2021/08/09 14:11:24;;;;;;;10.10;4.05;;;;;;;;;;5091428;28;20111;-71
2021/08/09 14:13:50;;;;;;;10.93;4.30;;;;;;;;;;5087118;28;20024;-70
2021/08/09 14:16:23;;;;;;;8.85;4.10;;;;;;;;;;5092173;28;20016;-70
2021/08/09 14:18:49;;;;;;;8.93;4.10;;;;;;;;;;5070771;28;20059;-71
2021/08/09 14:21:15;;;;;;;17.50;4.45;;;;;;;;;;5071438;28;20037;-71
2021/08/09 14:23:41;;;;;;;6.47;3.72;;;;;;;;;;5070777;28;20099;-68
2021/08/09 14:26:07;;;;;;;7.88;3.97;;;;;;;;;;5065862;28;20028;-70
2021/08/09 14:28:34;;;;;;;11.10;4.30;;;;;;;;;;5072080;28;20021;-71
2021/08/09 14:31:00;;;;;;;7.80;4.32;;;;;;;;;;5066499;28;20036;-68
2021/08/09 14:33:26;;;;;;;10.20;4.43;;;;;;;;;;5061364;28;20099;-69
2021/08/09 14:35:52;;;;;;;6.47;3.67;;;;;;;;;;5069808;28;20039;-71
2021/08/09 14:38:18;;;;;;;8.27;4.13;;;;;;;;;;5071018;28;20044;-70
2021/08/09 14:40:44;;;;;;;10.73;4.15;;;;;;;;;;5071815;28;20162;-70